Terminal Aerodrome Forecast
Issued by NWS

Home | Current Version | Previous Version | Text Only | Print | Product List | Glossary On
Versions: 1 2 3 4 5 6 7 8 9 10 11 12 13 14 15 16 17 18
748
FTUS42 KJAX 041741
TAFCRG
TAF
KCRG 041741Z 0418/0518 14011G18KT P6SM SCT040 BKN080
     FM042300 14007KT P6SM SCT035 BKN050
     FM050800 18006KT P6SM SCT015 SCT025 BKN100
      TEMPO 0509/0513 4SM BR SCT007 BKN020
     FM051500 20010KT P6SM VCSH SCT015 BKN030=

USA.gov is the U.S. government's official web portal to all federal, state and local government web resources and services.